西安 の空港の天気 - METARとTAF

西安咸陽国際空港 ( ZLXY / XIY ) - 中華人民共和国 陝西省西安市
飛行場実況気象(Metar)
観測時間04/28 00:00 CST (04/27 16:00 UTC)
風向・風速不定 1m/s
視程10km以上
天気現象
なし
気温8℃
湿度93%
気圧1018hPa
METARZLXY 271600Z VRB01MPS CAVOK 08/07 Q1018 NOSIG
過去の天気等 Google飛行場航空写真 Wunderground天気予報

過去48時間のMETAR

飛行場予報(TAF)
発表時間: 4/27 17:07 CST (4/27 09:07 UTC)
予報対象時間: 27日20時 CST ~ 28日20時 CST
風向・風速南西 3m/s
視程4,000m
天気現象煙霧
なし
TAF ZLXY 270907Z 2712/2812 23003MPS 4000 HZ NSC TX27/2807Z TN10/2722Z